Time;durP1;ratioP1;P1;durP2;ratioP2;P2;SDS_P1;SDS_P2;PMS_P1;PMS_P2;Temp;Humidity;BMP_temperature;BMP_pressure;BME280_temperature;BME280_humidity;BME280_pressure;Samples;Min_cycle;Max_cycle;Signal;HPM_P1;HPM_P2
2021/01/04 00:04:27;;;;;;;;;;;;;;;7.89;46.38;102224.38;6087240;23;19925;-78
2021/01/04 00:17:36;;;;;;;;;;;;;;;7.94;46.23;102209.47;6130756;23;19929;-77
2021/01/04 00:20:15;;;;;;;;;;;;;;;7.94;46.20;102204.19;6125990;23;19971;-78
2021/01/04 00:22:48;;;;;;;;;;;;;;;7.95;46.79;102208.59;6126186;23;19925;-79
2021/01/04 00:25:51;;;;;;;;;;;;;;;7.94;46.41;102209.47;6129905;23;19971;-78
2021/01/04 00:51:07;;;;;;;;;;;;;;;7.79;46.71;102191.81;6066981;23;19922;-78
2021/01/04 00:54:10;;;;;;;;;;;;;;;7.74;46.86;102186.50;6042426;23;19924;-78
2021/01/04 00:56:54;;;;;;;;;;;;;;;7.71;47.14;102183.84;6153913;23;19925;-79
2021/01/04 01:03:50;;;;;;;;;;;;;;;;;;;;;
2021/01/04 01:07:38;;;;;;;;;;;;;;;;;;;;;
2021/01/04 01:10:52;;;;;;;;;;;;;;;7.59;47.37;102181.09;6129188;23;19927;-79
2021/01/04 01:14:50;;;;;;;;;;;;;;;7.55;47.24;102182.84;6130476;23;19925;-78
2021/01/04 01:33:35;;;;;;;;;;;;;;;7.36;47.58;102173.91;5915604;24;19945;-78
2021/01/04 01:36:05;;;;;;;;;;;;;;;7.33;47.34;102168.63;5934372;23;20360;-79
2021/01/04 01:38:49;;;;;;;;;;;;;;;7.28;47.69;102160.66;5954507;24;19929;-78
2021/01/04 01:41:32;;;;;;;;;;;;;;;7.26;48.13;102148.34;6002241;23;19926;-78
2021/01/04 01:44:05;;;;;;;;;;;;;;;7.24;47.86;102150.97;6012586;23;19926;-79
2021/01/04 01:46:35;;;;;;;;;;;;;;;7.25;48.07;102144.84;5985228;23;19966;-78
2021/01/04 01:49:07;;;;;;;;;;;;;;;7.26;47.73;102141.38;6072261;23;19985;-78
2021/01/04 01:51:44;;;;;;;;;;;;;;;7.26;48.07;102144.00;6152121;23;19921;-78
2021/01/04 01:54:19;;;;;;;;;;;;;;;7.28;47.84;102142.25;6127036;23;19921;-78
2021/01/04 01:56:54;;;;;;;;;;;;;;;7.30;47.54;102145.78;6153268;23;19984;-78
2021/01/04 01:59:36;;;;;;;;;;;;;;;7.31;47.82;102141.38;6128232;23;19947;-78
2021/01/04 02:02:06;;;;;;;;;;;;;;;7.36;47.65;102138.81;6150184;23;19929;-78
2021/01/04 02:04:42;;;;;;;;;;;;;;;7.39;47.93;102139.69;6152025;23;19925;-78
2021/01/04 02:07:13;;;;;;;;;;;;;;;7.41;47.67;102142.34;6152951;23;20365;-78
2021/01/04 02:09:42;;;;;;;;;;;;;;;7.44;47.50;102139.75;6128085;23;19971;-78
2021/01/04 02:12:12;;;;;;;;;;;;;;;7.50;47.20;102139.81;6127815;23;19928;-78
2021/01/04 02:14:53;;;;;;;;;;;;;;;7.51;47.12;102141.53;6125943;23;19964;-78
2021/01/04 02:17:38;;;;;;;;;;;;;;;7.51;47.44;102135.41;6126879;23;20095;-77
2021/01/04 02:20:29;;;;;;;;;;;;;;;7.53;47.29;102128.41;6129826;23;19999;-78
2021/01/04 02:23:11;;;;;;;;;;;;;;;7.54;47.61;102123.16;6135185;23;19979;-78
2021/01/04 02:25:41;;;;;;;;;;;;;;;7.54;47.34;102130.16;6152676;23;19953;-79
2021/01/04 02:28:11;;;;;;;;;;;;;;;7.53;47.42;102116.09;6126519;23;19936;-78
2021/01/04 02:30:38;;;;;;;;;;;;;;;7.53;47.24;102117.88;6124841;23;19948;-78
2021/01/04 02:33:07;;;;;;;;;;;;;;;7.53;47.46;102131.91;6128565;23;19925;-79
2021/01/04 02:35:35;;;;;;;;;;;;;;;7.52;47.47;102124.00;6153077;23;20004;-78
2021/01/04 02:38:04;;;;;;;;;;;;;;;7.53;47.70;102128.41;6127489;23;19925;-78
2021/01/04 02:40:31;;;;;;;;;;;;;;;7.52;47.92;102124.88;6129208;23;19921;-78
2021/01/04 02:42:59;;;;;;;;;;;;;;;7.51;47.52;102127.50;6124719;23;19936;-78
2021/01/04 02:45:28;;;;;;;;;;;;;;;7.48;47.66;102131.00;6125286;23;19952;-78
2021/01/04 02:48:05;;;;;;;;;;;;;;;7.46;47.70;102136.25;6152684;23;19992;-78
2021/01/04 02:50:44;;;;;;;;;;;;;;;7.45;47.69;102138.88;6130015;23;20501;-78
2021/01/04 02:53:25;;;;;;;;;;;;;;;7.42;47.45;102131.84;6152158;23;19924;-78
2021/01/04 02:56:02;;;;;;;;;;;;;;;7.40;47.91;102135.31;6127932;23;20272;-78
2021/01/04 02:58:40;;;;;;;;;;;;;;;7.39;47.91;102128.28;6167256;23;20362;-78
2021/01/04 03:01:09;;;;;;;;;;;;;;;7.35;47.64;102132.63;6186580;23;19931;-78
2021/01/04 03:03:37;;;;;;;;;;;;;;;7.35;47.79;102132.63;6163411;22;19932;-78
2021/01/04 03:06:07;;;;;;;;;;;;;;;7.33;47.36;102126.50;6163333;22;19931;-78
2021/01/04 03:08:34;;;;;;;;;;;;;;;7.32;47.84;102127.34;6163953;23;19924;-78
2021/01/04 03:11:01;;;;;;;;;;;;;;;7.29;47.98;102124.72;6189296;23;20768;-79
2021/01/04 03:13:35;;;;;;;;;;;;;;;7.28;47.58;102130.84;6185965;23;19927;-78
2021/01/04 03:16:10;;;;;;;;;;;;;;;7.28;47.80;102131.72;6189320;22;19928;-80
2021/01/04 03:18:41;;;;;;;;;;;;;;;7.24;47.81;102129.06;6190700;23;19936;-78
2021/01/04 03:21:08;;;;;;;;;;;;;;;7.22;47.95;102136.94;6163791;22;20341;-79
2021/01/04 03:23:35;;;;;;;;;;;;;;;7.19;47.85;102136.03;6163403;23;19921;-78
2021/01/04 03:26:06;;;;;;;;;;;;;;;7.16;47.82;102134.25;6161141;23;19924;-78
2021/01/04 03:28:33;;;;;;;;;;;;;;;7.13;47.72;102132.47;6159713;22;19995;-78
2021/01/04 03:31:05;;;;;;;;;;;;;;;7.13;47.66;102131.56;6190005;23;20003;-78
2021/01/04 03:33:33;;;;;;;;;;;;;;;7.10;47.87;102124.53;6161416;22;19931;-78
2021/01/04 03:36:00;;;;;;;;;;;;;;;7.08;48.11;102125.41;6187468;22;20259;-78
2021/01/04 03:38:27;;;;;;;;;;;;;;;7.07;48.00;102121.00;6188772;22;19920;-79
2021/01/04 03:40:54;;;;;;;;;;;;;;;7.04;47.97;102118.31;6160268;23;19943;-78
2021/01/04 03:43:21;;;;;;;;;;;;;;;7.04;48.13;102115.69;6159824;23;19931;-79
2021/01/04 03:45:48;;;;;;;;;;;;;;;7.02;48.10;102117.44;6189810;23;19997;-79
2021/01/04 03:48:15;;;;;;;;;;;;;;;7.03;48.14;102117.47;6189244;22;19935;-79
2021/01/04 03:50:43;;;;;;;;;;;;;;;7.04;48.00;102123.59;6163036;22;19942;-79
2021/01/04 03:53:10;;;;;;;;;;;;;;;7.05;48.11;102115.75;6163274;22;20374;-79
2021/01/04 03:55:38;;;;;;;;;;;;;;;7.05;47.82;102121.00;6158731;23;19928;-79
2021/01/04 03:58:06;;;;;;;;;;;;;;;7.08;47.86;102117.53;6187232;23;19940;-79
2021/01/04 04:00:33;;;;;;;;;;;;;;;7.09;47.85;102114.91;6164296;22;19924;-79
2021/01/04 04:03:00;;;;;;;;;;;;;;;7.13;47.94;102113.16;6164124;22;19936;-79
2021/01/04 04:05:27;;;;;;;;;;;;;;;7.15;48.23;102114.94;6163904;23;19928;-78
2021/01/04 04:07:56;;;;;;;;;;;;;;;7.18;47.97;102114.06;6164070;22;19947;-79
2021/01/04 04:10:23;;;;;;;;;;;;;;;7.24;47.74;102116.75;6184239;22;19996;-79
2021/01/04 04:12:50;;;;;;;;;;;;;;;7.25;47.70;102120.25;6160698;22;19920;-78
2021/01/04 04:15:18;;;;;;;;;;;;;;;7.27;48.06;102123.81;6188776;23;20363;-78
2021/01/04 04:17:45;;;;;;;;;;;;;;;7.30;47.72;102116.81;6164729;22;19928;-78
2021/01/04 04:20:14;;;;;;;;;;;;;;;7.31;47.87;102115.97;6163016;22;19924;-78
2021/01/04 04:22:41;;;;;;;;;;;;;;;7.35;47.65;102122.09;6185987;22;19987;-78
2021/01/04 04:25:10;;;;;;;;;;;;;;;7.35;47.61;102114.22;6157550;22;19925;-78
2021/01/04 04:27:37;;;;;;;;;;;;;;;7.36;47.80;102113.34;6163260;23;19989;-79
2021/01/04 04:30:05;;;;;;;;;;;;;;;7.36;47.72;102110.72;6190023;23;19921;-78
2021/01/04 04:32:32;;;;;;;;;;;;;;;7.37;47.81;102116.84;6164122;23;20423;-78
2021/01/04 04:34:59;;;;;;;;;;;;;;;7.33;47.75;102118.59;6188729;23;19924;-78
2021/01/04 04:37:28;;;;;;;;;;;;;;;7.33;47.67;102118.59;6159598;23;19927;-78
2021/01/04 04:39:55;;;;;;;;;;;;;;;7.31;47.85;102122.97;6159023;23;20667;-78
2021/01/04 04:42:23;;;;;;;;;;;;;;;7.29;47.83;102125.59;6163544;22;19921;-79
2021/01/04 04:44:55;;;;;;;;;;;;;;;7.28;47.87;102121.19;6163886;23;20034;-78
2021/01/04 04:47:29;;;;;;;;;;;;;;;7.26;48.01;102115.03;6190517;23;19936;-78
2021/01/04 04:50:13;;;;;;;;;;;;;;;7.25;47.74;102126.44;6189023;23;19920;-78
2021/01/04 04:52:54;;;;;;;;;;;;;;;7.24;47.78;102123.78;6185553;23;19943;-78
2021/01/04 04:55:32;;;;;;;;;;;;;;;7.21;47.75;102118.47;6166254;23;19944;-78
2021/01/04 04:58:08;;;;;;;;;;;;;;;7.21;47.90;102118.47;6162828;22;19920;-78
2021/01/04 05:00:45;;;;;;;;;;;;;;;7.19;47.87;102121.09;6163908;23;19928;-78
2021/01/04 05:03:28;;;;;;;;;;;;;;;7.19;48.16;102121.09;6188342;23;19926;-78
2021/01/04 05:06:00;;;;;;;;;;;;;;;7.18;47.76;102126.38;6159235;23;19936;-78
2021/01/04 05:08:40;;;;;;;;;;;;;;;7.15;48.07;102117.56;6185834;23;19920;-78
2021/01/04 05:11:08;;;;;;;;;;;;;;;7.14;48.17;102118.44;6190182;23;19972;-79
2021/01/04 05:13:39;;;;;;;;;;;;;;;7.11;47.96;102122.78;6163443;22;19950;-78
2021/01/04 05:16:06;;;;;;;;;;;;;;;7.11;48.00;102114.91;6163405;22;19940;-78
2021/01/04 05:18:56;;;;;;;;;;;;;;;7.11;48.34;102118.41;6190577;23;19924;-79
2021/01/04 05:21:41;;;;;;;;;;;;;;;7.06;48.00;102114.84;6184026;22;20341;-78
2021/01/04 05:24:23;;;;;;;;;;;;;;;7.04;48.22;102120.97;6157716;23;19940;-79
2021/01/04 05:27:08;;;;;;;;;;;;;;;7.04;48.06;102120.97;6188316;22;19920;-78
2021/01/04 05:30:03;;;;;;;;;;;;;;;7.00;48.24;102124.44;6130401;23;19995;-78
2021/01/04 05:32:45;;;;;;;;;;;;;;;7.00;48.42;102120.06;6163444;22;19925;-78
2021/01/04 05:35:15;;;;;;;;;;;;;;;6.98;48.03;102129.69;6187119;23;19924;-78
2021/01/04 05:37:49;;;;;;;;;;;;;;;6.95;48.40;102121.78;6157975;23;19925;-78
2021/01/04 05:40:24;;;;;;;;;;;;;;;6.94;48.44;102109.47;6162310;22;19928;-79
2021/01/04 05:43:12;;;;;;;;;;;;;;;6.94;48.33;102122.63;6188244;22;20273;-79
2021/01/04 05:45:44;;;;;;;;;;;;;;;6.92;48.46;102119.09;6190179;23;20257;-78
2021/01/04 05:48:15;;;;;;;;;;;;;;;6.91;48.37;102118.22;6163674;22;19927;-78
2021/01/04 05:50:46;;;;;;;;;;;;;;;6.90;48.50;102112.97;6158107;23;19924;-77
2021/01/04 05:53:13;;;;;;;;;;;;;;;6.95;48.20;102120.03;6187002;23;19976;-78
2021/01/04 05:55:40;;;;;;;;;;;;;;;6.97;48.34;102117.41;6188594;23;19921;-78
2021/01/04 05:58:17;;;;;;;;;;;;;;;6.99;48.30;102126.19;6189219;22;19928;-78
2021/01/04 06:00:45;;;;;;;;;;;;;;;7.02;48.24;102120.94;6188103;22;20417;-79
2021/01/04 06:03:13;;;;;;;;;;;;;;;7.05;48.40;102128.91;6186827;23;20003;-78
2021/01/04 06:05:41;;;;;;;;;;;;;;;7.09;48.36;102114.91;6157932;23;19981;-78
2021/01/04 06:08:20;;;;;;;;;;;;;;;7.13;48.23;102123.69;6161703;22;19950;-78
2021/01/04 06:10:46;;;;;;;;;;;;;;;7.11;48.10;102122.78;6187632;23;20043;-79
2021/01/04 06:13:15;;;;;;;;;;;;;;;7.20;47.90;102117.63;6162527;22;19921;-79
2021/01/04 06:15:49;;;;;;;;;;;;;;;7.23;47.95;102119.38;6164049;22;19928;-79
2021/01/04 06:18:25;;;;;;;;;;;;;;;7.28;47.78;102122.94;6184509;22;19930;-79
2021/01/04 06:21:07;;;;;;;;;;;;;;;7.30;47.92;102116.81;6158639;23;19930;-78
2021/01/04 06:23:35;;;;;;;;;;;;;;;7.33;47.55;102115.97;6188291;23;19935;-79
2021/01/04 06:26:03;;;;;;;;;;;;;;;7.40;47.76;102122.16;6163219;23;19920;-80
2021/01/04 06:28:30;;;;;;;;;;;;;;;7.42;47.51;102121.31;6189762;23;20004;-76
2021/01/04 06:31:01;;;;;;;;;;;;;;;7.44;47.88;102124.81;6187716;22;19951;-75
2021/01/04 06:33:29;;;;;;;;;;;;;;;7.51;47.80;102122.22;6159181;22;19924;-76
2021/01/04 06:36:01;;;;;;;;;;;;;;;7.56;47.65;102124.03;6184742;23;19929;-79
2021/01/04 06:38:29;;;;;;;;;;;;;;;7.56;47.43;102125.78;6188039;22;19924;-75
2021/01/04 06:40:57;;;;;;;;;;;;;;;7.57;47.72;102131.06;6164054;22;19924;-79
2021/01/04 06:43:25;;;;;;;;;;;;;;;7.58;47.75;102135.47;6164698;22;19946;-79
2021/01/04 06:46:10;;;;;;;;;;;;;;;7.60;47.75;102119.66;6162534;22;19924;-79
2021/01/04 06:48:44;;;;;;;;;;;;;;;7.60;47.27;102132.84;6186724;23;19928;-78
2021/01/04 06:51:26;;;;;;;;;;;;;;;7.61;47.38;102135.47;6187090;22;20445;-76
2021/01/04 06:54:10;;;;;;;;;;;;;;;7.62;47.41;102128.47;6165200;23;19970;-76
2021/01/04 06:56:58;;;;;;;;;;;;;;;7.64;47.50;102139.88;6190166;23;19928;-80
2021/01/04 06:59:40;;;;;;;;;;;;;;;7.61;47.33;102134.59;6164407;22;19921;-78
2021/01/04 07:02:25;;;;;;;;;;;;;;;7.63;47.35;102133.75;6187362;23;20321;-79
2021/01/04 07:05:09;;;;;;;;;;;;;;;7.63;47.83;102138.16;6160126;23;20009;-77
2021/01/04 07:07:48;;;;;;;;;;;;;;;7.64;47.53;102138.16;6163617;22;19924;-78
2021/01/04 07:10:26;;;;;;;;;;;;;;;7.67;47.48;102133.75;6162715;23;19924;-77
2021/01/04 07:13:03;;;;;;;;;;;;;;;7.62;47.29;102134.59;6191016;23;19924;-77
2021/01/04 07:15:32;;;;;;;;;;;;;;;7.64;47.40;102135.50;6160838;23;19943;-77
2021/01/04 07:18:26;;;;;;;;;;;;;;;7.63;47.30;102135.50;6186718;23;19999;-77
2021/01/04 07:21:08;;;;;;;;;;;;;;;7.62;47.76;102142.50;6182678;23;19932;-77
2021/01/04 07:23:56;;;;;;;;;;;;;;;7.62;47.26;102146.91;6164115;22;19928;-77
2021/01/04 07:26:30;;;;;;;;;;;;;;;7.57;47.66;102138.09;6193293;23;19920;-77
2021/01/04 07:29:10;;;;;;;;;;;;;;;7.57;47.99;102143.34;6163246;22;19924;-77
2021/01/04 07:31:38;;;;;;;;;;;;;;;7.56;47.57;102139.81;6186316;23;19924;-77
2021/01/04 07:34:15;;;;;;;;;;;;;;;7.54;47.73;102146.84;6162704;22;19940;-77
2021/01/04 07:36:48;;;;;;;;;;;;;;;7.54;47.50;102143.31;6190794;23;19924;-77
2021/01/04 07:39:23;;;;;;;;;;;;;;;7.52;47.44;102143.31;6163330;22;19931;-77
2021/01/04 07:41:58;;;;;;;;;;;;;;;7.56;47.86;102146.84;6165382;22;20116;-78
2021/01/04 07:44:40;;;;;;;;;;;;;;;7.57;47.97;102148.63;6187916;23;20360;-78
2021/01/04 07:47:27;;;;;;;;;;;;;;;7.59;47.51;102150.41;6185941;22;19931;-77
2021/01/04 07:50:10;;;;;;;;;;;;;;;7.61;47.39;102145.13;6163312;23;19920;-77
2021/01/04 07:53:05;;;;;;;;;;;;;;;7.65;47.25;102149.56;6190016;23;19925;-77
2021/01/04 07:55:50;;;;;;;;;;;;;;;7.69;47.11;102148.69;6190863;23;19924;-77
2021/01/04 07:58:44;;;;;;;;;;;;;;;7.72;47.12;102147.84;6138439;23;19975;-78
2021/01/04 08:01:30;;;;;;;;;;;;;;;7.76;47.11;102157.53;6126490;23;19932;-77
2021/01/04 08:04:05;;;;;;;;;;;;;;;7.82;47.24;102154.94;6128057;23;19925;-78
2021/01/04 08:06:49;;;;;;;;;;;;;;;7.88;46.83;102159.34;6126741;23;20319;-77
2021/01/04 08:09:23;;;;;;;;;;;;;;;7.94;47.44;102160.28;6128429;23;20549;-76
2021/01/04 08:12:06;;;;;;;;;;;;;;;8.00;47.00;102161.19;6126917;23;19936;-78
2021/01/04 08:14:52;;;;;;;;;;;;;;;8.00;47.22;102162.09;6123462;23;19969;-78
2021/01/04 08:17:31;;;;;;;;;;;;;;;8.07;47.28;102169.13;6151279;23;20258;-82
2021/01/04 08:19:59;;;;;;;;;;;;;;;8.09;46.83;102169.13;6126786;23;19929;-76
2021/01/04 08:22:50;;;;;;;;;;;;;;;8.10;46.94;102160.38;6127447;23;19931;-77
2021/01/04 08:25:23;;;;;;;;;;;;;;;8.17;46.38;102175.38;6070965;23;19926;-76
2021/01/04 08:27:57;;;;;;;;;;;;;;;8.19;47.02;102186.78;6125506;23;20616;-76
2021/01/04 08:30:28;;;;;;;;;;;;;;;8.20;46.32;102179.78;6125361;23;19999;-77
2021/01/04 08:32:59;;;;;;;;;;;;;;;8.23;47.07;102182.41;6128735;23;19921;-77
2021/01/04 08:35:33;;;;;;;;;;;;;;;8.27;46.66;102181.56;6128842;23;19948;-79
2021/01/04 08:38:12;;;;;;;;;;;;;;;8.28;46.27;102189.47;6128146;23;20444;-80
2021/01/04 08:40:49;;;;;;;;;;;;;;;8.30;46.49;102178.94;6125422;23;20280;-79
2021/01/04 08:43:16;;;;;;;;;;;;;;;8.37;46.47;102182.50;6128047;23;19948;-77
2021/01/04 08:45:45;;;;;;;;;;;;;;;8.46;46.06;102190.47;6125149;23;19969;-78
2021/01/04 08:48:14;;;;;;;;;;;;;;;8.64;45.63;102189.66;6128204;23;20007;-79
2021/01/04 08:50:45;;;;;;;;;;;;;;;8.89;45.01;102189.72;6126335;23;19983;-77
2021/01/04 08:53:17;;;;;;;;;;;;;;;9.11;44.43;102182.75;6128963;23;19931;-79
2021/01/04 08:55:46;;;;;;;;;;;;;;;9.16;44.95;102181.00;6124632;23;19920;-76
2021/01/04 08:58:34;;;;;;;;;;;;;;;9.17;44.60;102193.31;6143247;23;19925;-78
2021/01/04 09:01:02;;;;;;;;;;;;;;;9.35;43.94;102189.84;6160826;23;20469;-76
2021/01/04 09:03:31;;;;;;;;;;;;;;;9.49;43.93;102184.53;6161794;23;19927;-77
2021/01/04 09:06:10;;;;;;;;;;;;;;;9.54;43.98;102182.78;6188007;23;19970;-76
2021/01/04 09:08:37;;;;;;;;;;;;;;;9.61;43.90;102181.91;6187915;23;19920;-75
2021/01/04 09:11:07;;;;;;;;;;;;;;;9.60;44.07;102180.16;6157524;22;20257;-78
2021/01/04 09:13:35;;;;;;;;;;;;;;;9.79;43.41;102180.13;6159463;22;19920;-76
2021/01/04 09:16:09;;;;;;;;;;;;;;;9.86;43.34;102181.00;6188233;23;19952;-79
2021/01/04 09:18:39;;;;;;;;;;;;;;;9.95;42.95;102183.63;6188297;23;19928;-76
2021/01/04 09:21:23;;;;;;;;;;;;;;;9.95;43.13;102186.25;6162003;22;19931;-77
2021/01/04 09:23:50;;;;;;;;;;;;;;;9.85;43.84;102185.41;6184609;22;19921;-76
2021/01/04 09:26:29;;;;;;;;;;;;;;;9.79;43.30;102186.28;6158246;23;19936;-75
2021/01/04 09:29:05;;;;;;;;;;;;;;;9.71;43.61;102182.78;6189402;23;19946;-80
2021/01/04 09:31:33;;;;;;;;;;;;;;;9.69;43.71;102184.56;6162574;22;19991;-78
2021/01/04 09:34:00;;;;;;;;;;;;;;;9.68;44.03;102185.44;6187782;23;19920;-79
2021/01/04 09:36:27;;;;;;;;;;;;;;;9.70;43.71;102186.28;6187658;23;19969;-78
2021/01/04 09:39:04;;;;;;;;;;;;;;;9.92;42.81;102171.28;6185084;23;19924;-79
2021/01/04 09:41:32;;;;;;;;;;;;;;;10.43;41.69;102167.66;6184168;23;19947;-78
2021/01/04 09:44:04;;;;;;;;;;;;;;;10.25;42.40;102174.72;6162187;22;19931;-78
2021/01/04 09:46:37;;;;;;;;;;;;;;;10.05;42.96;102174.78;6189228;23;19924;-79
2021/01/04 09:49:06;;;;;;;;;;;;;;;9.85;43.60;102177.47;6187127;22;19951;-78
2021/01/04 09:51:39;;;;;;;;;;;;;;;9.73;43.32;102177.47;6185580;22;19931;-78
2021/01/04 09:54:08;;;;;;;;;;;;;;;9.67;43.90;102177.50;6182687;23;19974;-78
2021/01/04 09:56:37;;;;;;;;;;;;;;;9.82;43.69;102168.66;6187945;22;19931;-78
2021/01/04 09:59:06;;;;;;;;;;;;;;;9.90;43.53;102164.25;6190805;23;19925;-78
2021/01/04 10:01:41;;;;;;;;;;;;;;;9.88;43.24;102163.38;6188688;23;19920;-79
2021/01/04 10:04:08;;;;;;;;;;;;;;;10.20;42.80;102157.97;6188994;22;19951;-78
2021/01/04 10:06:38;;;;;;;;;;;;;;;10.25;42.68;102163.28;6160566;22;19954;-78
2021/01/04 10:09:08;;;;;;;;;;;;;;;9.97;43.15;102153.66;6156020;22;19928;-78
2021/01/04 10:11:36;;;;;;;;;;;;;;;9.96;43.38;102149.25;6161206;22;19925;-78
2021/01/04 10:14:11;;;;;;;;;;;;;;;9.94;43.38;102156.31;6185849;22;19924;-77
2021/01/04 10:16:38;;;;;;;;;;;;;;;10.09;43.29;102154.50;6187058;22;19924;-78
2021/01/04 10:19:14;;;;;;;;;;;;;;;10.18;42.68;102145.66;6160011;23;19925;-78
2021/01/04 10:21:59;;;;;;;;;;;;;;;10.40;42.50;102150.03;6182659;23;19924;-78
2021/01/04 10:24:30;;;;;;;;;;;;;;;10.19;42.97;102143.03;6159658;22;19989;-78
2021/01/04 10:27:05;;;;;;;;;;;;;;;10.23;42.89;102144.78;6187898;23;19920;-77
2021/01/04 10:29:53;;;;;;;;;;;;;;;10.19;42.98;102156.25;6164365;22;19925;-77
2021/01/04 10:32:26;;;;;;;;;;;;;;;10.02;43.53;102143.06;6189728;23;19920;-77
2021/01/04 10:34:53;;;;;;;;;;;;;;;10.03;43.55;102144.81;6183752;22;19920;-77
2021/01/04 10:37:34;;;;;;;;;;;;;;;10.04;43.28;102140.44;6183904;22;19920;-77
2021/01/04 10:40:07;;;;;;;;;;;;;;;10.19;43.06;102140.38;6187856;22;19930;-78
2021/01/04 10:42:36;;;;;;;;;;;;;;;10.18;43.12;102141.25;6163502;22;20340;-79
2021/01/04 10:45:11;;;;;;;;;;;;;;;10.24;42.50;102140.34;6189063;22;19924;-77
2021/01/04 10:47:56;;;;;;;;;;;;;;;10.20;43.17;102130.66;6187023;22;19973;-78
2021/01/04 10:50:32;;;;;;;;;;;;;;;10.17;42.67;102135.97;6157791;22;19932;-78
2021/01/04 10:53:03;;;;;;;;;;;;;;;10.15;42.95;102135.97;6161774;23;19981;-78
2021/01/04 10:55:31;;;;;;;;;;;;;;;10.42;42.50;102127.06;6188059;23;19921;-76
2021/01/04 10:58:08;;;;;;;;;;;;;;;10.78;41.65;102137.47;6163201;23;19931;-76
2021/01/04 11:00:38;;;;;;;;;;;;;;;10.60;41.66;102141.13;6190227;23;19928;-77
2021/01/04 11:03:09;;;;;;;;;;;;;;;10.54;42.36;102126.13;6184971;23;20333;-79
2021/01/04 11:05:38;;;;;;;;;;;;;;;11.07;41.16;102126.69;6159359;22;19924;-79
2021/01/04 11:08:09;;;;;;;;;;;;;;;12.15;38.54;102123.91;6189294;23;19927;-79
2021/01/04 11:10:36;;;;;;;;;;;;;;;12.42;37.65;102118.28;6183041;22;19946;-79
2021/01/04 11:13:04;;;;;;;;;;;;;;;11.42;39.94;102128.16;6188223;23;19920;-78
2021/01/04 11:15:34;;;;;;;;;;;;;;;10.95;41.46;102132.06;6161421;22;19920;-77
2021/01/04 11:18:04;;;;;;;;;;;;;;;10.65;42.19;102125.19;6181746;22;19924;-76
2021/01/04 11:20:31;;;;;;;;;;;;;;;10.53;42.08;102128.78;6182185;22;19924;-76
2021/01/04 11:23:06;;;;;;;;;;;;;;;10.79;41.68;102124.25;6158466;22;19924;-78
2021/01/04 11:25:34;;;;;;;;;;;;;;;10.60;42.24;102128.75;6187163;23;19931;-78
2021/01/04 11:28:08;;;;;;;;;;;;;;;10.51;42.49;102120.88;6161643;23;19944;-78
2021/01/04 11:30:52;;;;;;;;;;;;;;;10.54;42.35;102122.63;6160584;22;19924;-80
2021/01/04 11:33:24;;;;;;;;;;;;;;;11.15;41.17;102117.81;6184612;23;20432;-79
2021/01/04 11:35:51;;;;;;;;;;;;;;;11.83;39.45;102119.81;6185647;22;20034;-80
2021/01/04 11:38:21;;;;;;;;;;;;;;;11.88;39.45;102113.56;6188793;23;19932;-80
2021/01/04 11:40:53;;;;;;;;;;;;;;;11.68;40.15;102118.22;6187617;22;20690;-79
2021/01/04 11:43:24;;;;;;;;;;;;;;;12.48;38.42;102113.78;6163658;22;19924;-78
2021/01/04 11:45:51;;;;;;;;;;;;;;;12.40;38.22;102109.44;6157791;23;19930;-79
2021/01/04 11:48:18;;;;;;;;;;;;;;;11.79;39.87;102108.38;6158199;23;19924;-76
2021/01/04 11:50:45;;;;;;;;;;;;;;;11.37;40.82;102113.19;6160360;22;19924;-75
2021/01/04 11:53:12;;;;;;;;;;;;;;;11.19;41.54;102103.63;6187194;23;19985;-75
2021/01/04 11:55:39;;;;;;;;;;;;;;;11.56;40.73;102098.91;6186522;23;19974;-76
2021/01/04 11:58:07;;;;;;;;;;;;;;;11.94;39.76;102092.28;6161267;22;19928;-77
2021/01/04 12:00:36;;;;;;;;;;;;;;;11.84;40.26;102088.00;6156780;23;19928;-76
2021/01/04 12:03:03;;;;;;;;;;;;;;;11.92;40.10;102093.22;6157940;22;19924;-76
2021/01/04 12:05:30;;;;;;;;;;;;;;;11.88;40.10;102091.50;6186438;23;19920;-79
2021/01/04 12:07:58;;;;;;;;;;;;;;;11.59;40.80;102096.19;6161919;22;19924;-79
2021/01/04 12:10:25;;;;;;;;;;;;;;;11.38;41.56;102093.78;6187262;23;20364;-79
2021/01/04 12:12:52;;;;;;;;;;;;;;;11.19;42.04;102090.41;6188944;23;19924;-78
2021/01/04 12:15:20;;;;;;;;;;;;;;;10.99;42.31;102087.91;6180352;22;19924;-78
2021/01/04 12:17:47;;;;;;;;;;;;;;;10.89;43.06;102080.03;6160441;22;19924;-78
2021/01/04 12:20:14;;;;;;;;;;;;;;;11.09;42.69;102086.97;6160453;22;19925;-78
2021/01/04 12:22:42;;;;;;;;;;;;;;;11.13;42.65;102084.25;6160506;22;19924;-78
2021/01/04 12:25:09;;;;;;;;;;;;;;;11.16;42.35;102080.69;6188996;23;19928;-78
2021/01/04 12:27:39;;;;;;;;;;;;;;;11.36;42.04;102077.91;6188043;23;20397;-78
2021/01/04 12:31:00;;;;;;;;;;;;;;;11.69;41.22;102078.44;6161063;22;20303;-78
2021/01/04 12:44:23;;;;;;;;;;;;;;;12.06;40.63;102061.25;6253989;22;20057;-81
2021/01/04 12:56:25;;;;;;;;;;;;;;;11.94;41.73;102056.97;6143960;23;19946;-78
2021/01/04 13:44:43;;;;;;;;;;;;;;;10.06;48.19;102065.50;6185742;23;19924;-80
2021/01/04 13:47:16;;;;;;;;;;;;;;;9.97;48.60;102058.47;6159294;22;19924;-79
2021/01/04 14:17:32;;;;;;;;;;;;;;;9.68;44.12;102073.53;6137492;22;20371;-81
2021/01/04 14:19:59;;;;;;;;;;;;;;;9.67;43.75;102072.69;6185743;23;19925;-81
2021/01/04 14:22:26;;;;;;;;;;;;;;;9.67;42.99;102079.75;6159051;23;19920;-81
2021/01/04 14:24:53;;;;;;;;;;;;;;;9.66;42.16;102076.19;6182776;23;19924;-80
2021/01/04 15:20:25;;;;;;;;;;;;;;;8.09;48.26;102098.88;6065257;23;19949;-77
2021/01/04 15:31:27;;;;;;;;;;;;;;;;;;;;;
2021/01/04 15:34:19;;;;;;;;;;;;;;;7.94;48.42;102097.03;6148548;22;19972;-81
2021/01/04 15:36:48;;;;;;;;;;;;;;;7.91;48.82;102096.16;6131344;23;20315;-81
2021/01/04 15:39:25;;;;;;;;;;;;;;;7.88;48.56;102086.47;6130466;23;19928;-80
2021/01/04 15:41:52;;;;;;;;;;;;;;;7.85;48.82;102086.44;6154799;23;19924;-79
2021/01/04 15:44:21;;;;;;;;;;;;;;;7.82;48.67;102082.03;6154677;23;19981;-80
2021/01/04 15:46:51;;;;;;;;;;;;;;;7.82;48.62;102083.81;6153647;23;19925;-78
2021/01/04 15:49:18;;;;;;;;;;;;;;;7.81;49.25;102080.31;6150664;23;19925;-77
2021/01/04 15:51:45;;;;;;;;;;;;;;;7.80;48.64;102081.16;6132275;23;20011;-79
2021/01/04 15:54:13;;;;;;;;;;;;;;;7.84;48.71;102082.06;6156882;23;19924;-76
2021/01/04 15:56:45;;;;;;;;;;;;;;;7.84;48.73;102087.34;6131132;23;19924;-79
2021/01/04 15:59:13;;;;;;;;;;;;;;;7.87;48.73;102081.22;6130358;23;20290;-78
2021/01/04 16:01:40;;;;;;;;;;;;;;;7.88;48.72;102069.78;6153567;22;20485;-79
2021/01/04 16:04:08;;;;;;;;;;;;;;;7.92;48.82;102071.56;6154217;23;19924;-78
2021/01/04 16:06:35;;;;;;;;;;;;;;;7.95;48.59;102072.44;6129588;23;20007;-79
2021/01/04 16:09:03;;;;;;;;;;;;;;;7.96;48.82;102073.34;6154908;23;20555;-79
2021/01/04 16:11:31;;;;;;;;;;;;;;;7.97;48.74;102069.81;6156005;23;19921;-79
2021/01/04 16:13:58;;;;;;;;;;;;;;;7.99;48.93;102068.06;6131904;23;19924;-78
2021/01/04 16:16:25;;;;;;;;;;;;;;;7.98;48.81;102064.56;6154429;23;20322;-78
2021/01/04 16:18:52;;;;;;;;;;;;;;;8.00;49.36;102069.84;6155483;23;19939;-77
2021/01/04 16:21:42;;;;;;;;;;;;;;;8.00;48.82;102068.94;6158411;23;20455;-78
2021/01/04 16:24:26;;;;;;;;;;;;;;;7.97;48.75;102061.91;6120263;22;19924;-79
2021/01/04 16:27:32;;;;;;;;;;;;;;;8.02;48.92;102073.34;6124425;23;20392;-79
2021/01/04 16:30:21;;;;;;;;;;;;;;;8.01;49.01;102066.34;6143962;23;20040;-78
2021/01/04 16:33:01;;;;;;;;;;;;;;;8.00;48.93;102072.47;6249504;22;19924;-78
2021/01/04 16:35:54;;;;;;;;;;;;;;;7.98;48.94;102075.13;6122441;23;20001;-78
2021/01/04 16:38:52;;;;;;;;;;;;;;;8.00;49.00;102066.31;6151673;22;19936;-78
2021/01/04 16:41:29;;;;;;;;;;;;;;;7.97;49.34;102072.44;6126549;23;19949;-78
2021/01/04 16:44:07;;;;;;;;;;;;;;;7.96;49.71;102075.97;6147607;22;20128;-78
2021/01/04 16:47:34;;;;;;;;;;;;;;;7.94;49.24;102073.31;6145562;23;20337;-78
2021/01/04 16:50:47;;;;;;;;;;;;;;;7.91;49.71;102075.06;6149279;23;19924;-77
2021/01/04 16:53:37;;;;;;;;;;;;;;;7.92;49.59;102063.66;6124385;23;19924;-78
2021/01/04 16:56:20;;;;;;;;;;;;;;;7.89;49.20;102076.81;6146827;23;19971;-79
2021/01/04 17:13:37;;;;;;;;;;;;;;;7.79;49.66;102083.81;6093210;23;19932;-77